sensor_id;sensor_type;location;lat;lon;timestamp;P1;durP1;ratioP1;P2;durP2;ratioP2
63621;SDS011;49770;47.544;19.074;2022-08-01T04:27:27;4.63;;;4.23;;
63621;SDS011;49770;47.544;19.074;2022-08-01T04:30:54;7.30;;;4.20;;
63621;SDS011;49770;47.544;19.074;2022-08-01T04:34:04;6.43;;;4.53;;
63621;SDS011;49770;47.544;19.074;2022-08-01T04:37:09;6.37;;;4.10;;
63621;SDS011;49770;47.544;19.074;2022-08-01T04:40:14;5.50;;;4.62;;
63621;SDS011;49770;47.544;19.074;2022-08-01T04:43:18;5.15;;;4.25;;
63621;SDS011;49770;47.544;19.074;2022-08-01T04:46:21;5.20;;;4.30;;
63621;SDS011;49770;47.544;19.074;2022-08-01T04:49:24;4.72;;;4.10;;
63621;SDS011;49770;47.544;19.074;2022-08-01T04:52:37;4.53;;;4.12;;
63621;SDS011;49770;47.544;19.074;2022-08-01T04:55:42;6.65;;;4.18;;
63621;SDS011;49770;47.544;19.074;2022-08-01T04:58:46;5.72;;;4.57;;
63621;SDS011;49770;47.544;19.074;2022-08-01T05:01:59;7.93;;;4.10;;
63621;SDS011;49770;47.544;19.074;2022-08-01T05:05:02;4.70;;;4.30;;
63621;SDS011;49770;47.544;19.074;2022-08-01T05:08:05;5.78;;;3.65;;
63621;SDS011;49770;47.544;19.074;2022-08-01T05:11:08;4.10;;;3.45;;
63621;SDS011;49770;47.544;19.074;2022-08-01T05:14:11;8.02;;;4.20;;
63621;SDS011;49770;47.544;19.074;2022-08-01T05:17:13;5.12;;;3.40;;
63621;SDS011;49770;47.544;19.074;2022-08-01T05:20:17;5.97;;;3.92;;
63621;SDS011;49770;47.544;19.074;2022-08-01T05:23:20;4.53;;;3.60;;
63621;SDS011;49770;47.544;19.074;2022-08-01T05:29:58;4.10;;;3.70;;
63621;SDS011;49770;47.544;19.074;2022-08-01T05:33:01;6.03;;;3.60;;
63621;SDS011;49770;47.544;19.074;2022-08-01T05:36:04;6.70;;;3.67;;
63621;SDS011;49770;47.544;19.074;2022-08-01T05:39:07;6.72;;;3.80;;
63621;SDS011;49770;47.544;19.074;2022-08-01T05:42:09;4.18;;;3.78;;
63621;SDS011;49770;47.544;19.074;2022-08-01T05:45:12;4.05;;;3.60;;
63621;SDS011;49770;47.544;19.074;2022-08-01T05:48:15;4.60;;;3.40;;
63621;SDS011;49770;47.544;19.074;2022-08-01T05:51:18;7.35;;;3.58;;
63621;SDS011;49770;47.544;19.074;2022-08-01T05:54:20;5.35;;;3.83;;
63621;SDS011;49770;47.544;19.074;2022-08-01T05:57:23;4.05;;;3.50;;
63621;SDS011;49770;47.544;19.074;2022-08-01T06:00:26;4.68;;;3.40;;
63621;SDS011;49770;47.544;19.074;2022-08-01T06:03:29;3.87;;;3.08;;
63621;SDS011;49770;47.544;19.074;2022-08-01T06:06:35;3.67;;;3.35;;
63621;SDS011;49770;47.544;19.074;2022-08-01T06:09:38;4.80;;;3.75;;
63621;SDS011;49770;47.544;19.074;2022-08-01T06:12:40;5.12;;;3.30;;
63621;SDS011;49770;47.544;19.074;2022-08-01T06:15:43;4.82;;;3.40;;
63621;SDS011;49770;47.544;19.074;2022-08-01T06:18:46;4.65;;;3.47;;
63621;SDS011;49770;47.544;19.074;2022-08-01T06:21:52;3.92;;;3.58;;
63621;SDS011;49770;47.544;19.074;2022-08-01T06:36:01;5.18;;;2.95;;
63621;SDS011;49770;47.544;19.074;2022-08-01T06:39:06;3.95;;;3.00;;
63621;SDS011;49770;47.544;19.074;2022-08-01T06:42:09;5.25;;;2.97;;
63621;SDS011;49770;47.544;19.074;2022-08-01T06:45:12;3.00;;;2.80;;
63621;SDS011;49770;47.544;19.074;2022-08-01T06:48:16;3.40;;;3.10;;
63621;SDS011;49770;47.544;19.074;2022-08-01T06:51:19;5.07;;;3.17;;
63621;SDS011;49770;47.544;19.074;2022-08-01T06:54:25;3.35;;;3.10;;
63621;SDS011;49770;47.544;19.074;2022-08-01T06:57:28;3.80;;;2.90;;
63621;SDS011;49770;47.544;19.074;2022-08-01T07:00:31;3.10;;;2.90;;
63621;SDS011;49770;47.544;19.074;2022-08-01T07:03:34;4.85;;;3.17;;
63621;SDS011;49770;47.544;19.074;2022-08-01T07:06:56;3.35;;;2.97;;
63621;SDS011;49770;47.544;19.074;2022-08-01T07:10:00;3.40;;;3.00;;
63621;SDS011;49770;47.544;19.074;2022-08-01T07:13:03;4.15;;;3.20;;
63621;SDS011;49770;47.544;19.074;2022-08-01T07:16:07;7.50;;;3.17;;
63621;SDS011;49770;47.544;19.074;2022-08-01T07:19:10;4.80;;;3.00;;
63621;SDS011;49770;47.544;19.074;2022-08-01T07:22:27;5.28;;;3.17;;
63621;SDS011;49770;47.544;19.074;2022-08-01T07:25:31;4.75;;;2.95;;
63621;SDS011;49770;47.544;19.074;2022-08-01T07:28:33;5.60;;;3.40;;
63621;SDS011;49770;47.544;19.074;2022-08-01T07:31:45;3.28;;;2.92;;
63621;SDS011;49770;47.544;19.074;2022-08-01T07:34:48;3.80;;;3.15;;
63621;SDS011;49770;47.544;19.074;2022-08-01T07:37:51;3.33;;;3.08;;
63621;SDS011;49770;47.544;19.074;2022-08-01T07:40:55;8.63;;;3.30;;
63621;SDS011;49770;47.544;19.074;2022-08-01T07:43:59;4.35;;;2.80;;
63621;SDS011;49770;47.544;19.074;2022-08-01T07:47:06;4.37;;;2.90;;
63621;SDS011;49770;47.544;19.074;2022-08-01T07:50:09;5.00;;;2.90;;
63621;SDS011;49770;47.544;19.074;2022-08-01T07:53:12;3.20;;;2.80;;
63621;SDS011;49770;47.544;19.074;2022-08-01T07:56:15;6.85;;;3.35;;
63621;SDS011;49770;47.544;19.074;2022-08-01T07:59:18;4.05;;;2.92;;
63621;SDS011;49770;47.544;19.074;2022-08-01T08:02:27;12.98;;;2.95;;
63621;SDS011;49770;47.544;19.074;2022-08-01T08:05:30;3.28;;;2.80;;
63621;SDS011;49770;47.544;19.074;2022-08-01T08:08:55;3.62;;;2.70;;
63621;SDS011;49770;47.544;19.074;2022-08-01T08:11:58;2.85;;;2.65;;
63621;SDS011;49770;47.544;19.074;2022-08-01T08:53:35;4.07;;;2.80;;
63621;SDS011;49770;47.544;19.074;2022-08-01T08:56:38;5.25;;;3.20;;
63621;SDS011;49770;47.544;19.074;2022-08-01T08:59:45;3.30;;;3.00;;
63621;SDS011;49770;47.544;19.074;2022-08-01T09:02:48;4.03;;;3.08;;
63621;SDS011;49770;47.544;19.074;2022-08-01T09:05:51;4.15;;;3.58;;
63621;SDS011;49770;47.544;19.074;2022-08-01T09:08:54;5.00;;;3.10;;
63621;SDS011;49770;47.544;19.074;2022-08-01T09:15:43;3.87;;;3.12;;
63621;SDS011;49770;47.544;19.074;2022-08-01T09:19:06;3.25;;;2.95;;
63621;SDS011;49770;47.544;19.074;2022-08-01T09:22:19;3.53;;;3.12;;
63621;SDS011;49770;47.544;19.074;2022-08-01T09:25:25;5.05;;;3.33;;
63621;SDS011;49770;47.544;19.074;2022-08-01T09:28:49;6.60;;;3.30;;
63621;SDS011;49770;47.544;19.074;2022-08-01T09:31:52;4.00;;;3.42;;
63621;SDS011;49770;47.544;19.074;2022-08-01T09:34:55;4.30;;;3.00;;
63621;SDS011;49770;47.544;19.074;2022-08-01T09:38:20;11.50;;;3.37;;
63621;SDS011;49770;47.544;19.074;2022-08-01T09:41:30;6.57;;;3.00;;
63621;SDS011;49770;47.544;19.074;2022-08-01T09:44:44;5.65;;;3.17;;
63621;SDS011;49770;47.544;19.074;2022-08-01T09:47:56;4.22;;;3.00;;
63621;SDS011;49770;47.544;19.074;2022-08-01T09:50:59;6.15;;;3.37;;
63621;SDS011;49770;47.544;19.074;2022-08-01T09:54:10;9.07;;;3.30;;
63621;SDS011;49770;47.544;19.074;2022-08-01T09:57:14;8.95;;;3.00;;
63621;SDS011;49770;47.544;19.074;2022-08-01T10:00:21;5.95;;;3.03;;
63621;SDS011;49770;47.544;19.074;2022-08-01T10:04:06;3.45;;;2.90;;
63621;SDS011;49770;47.544;19.074;2022-08-01T10:07:18;5.55;;;3.22;;
63621;SDS011;49770;47.544;19.074;2022-08-01T10:10:29;4.03;;;3.22;;
63621;SDS011;49770;47.544;19.074;2022-08-01T10:13:34;3.40;;;3.10;;
63621;SDS011;49770;47.544;19.074;2022-08-01T10:16:38;5.30;;;3.00;;
63621;SDS011;49770;47.544;19.074;2022-08-01T10:19:42;3.70;;;3.37;;
63621;SDS011;49770;47.544;19.074;2022-08-01T10:22:46;6.20;;;3.20;;
63621;SDS011;49770;47.544;19.074;2022-08-01T10:29:06;4.50;;;3.97;;
63621;SDS011;49770;47.544;19.074;2022-08-01T10:32:32;7.93;;;3.37;;
63621;SDS011;49770;47.544;19.074;2022-08-01T10:35:38;3.72;;;3.35;;
63621;SDS011;49770;47.544;19.074;2022-08-01T10:38:49;3.70;;;3.40;;
63621;SDS011;49770;47.544;19.074;2022-08-01T10:41:58;3.80;;;3.05;;
63621;SDS011;49770;47.544;19.074;2022-08-01T10:48:18;3.50;;;3.20;;
63621;SDS011;49770;47.544;19.074;2022-08-01T10:59:30;5.10;;;3.50;;
63621;SDS011;49770;47.544;19.074;2022-08-01T11:21:13;13.85;;;3.58;;
63621;SDS011;49770;47.544;19.074;2022-08-01T11:28:22;3.35;;;3.15;;
63621;SDS011;49770;47.544;19.074;2022-08-01T11:31:37;4.82;;;3.53;;
63621;SDS011;49770;47.544;19.074;2022-08-01T11:34:53;4.20;;;3.30;;
63621;SDS011;49770;47.544;19.074;2022-08-01T11:38:22;3.28;;;2.97;;
63621;SDS011;49770;47.544;19.074;2022-08-01T11:44:49;6.95;;;3.33;;
63621;SDS011;49770;47.544;19.074;2022-08-01T11:47:53;3.75;;;3.40;;
63621;SDS011;49770;47.544;19.074;2022-08-01T11:50:56;4.22;;;3.58;;
63621;SDS011;49770;47.544;19.074;2022-08-01T11:54:03;3.30;;;3.10;;
63621;SDS011;49770;47.544;19.074;2022-08-01T11:57:07;3.60;;;3.00;;
63621;SDS011;49770;47.544;19.074;2022-08-01T12:15:34;4.10;;;3.70;;
63621;SDS011;49770;47.544;19.074;2022-08-01T12:18:40;5.18;;;3.50;;
63621;SDS011;49770;47.544;19.074;2022-08-01T12:21:44;5.65;;;3.90;;
63621;SDS011;49770;47.544;19.074;2022-08-01T12:24:47;4.45;;;4.03;;
63621;SDS011;49770;47.544;19.074;2022-08-01T12:27:50;6.72;;;4.15;;
63621;SDS011;49770;47.544;19.074;2022-08-01T12:30:58;4.25;;;3.90;;
63621;SDS011;49770;47.544;19.074;2022-08-01T12:34:24;7.20;;;4.15;;
63621;SDS011;49770;47.544;19.074;2022-08-01T12:37:28;4.07;;;3.72;;
63621;SDS011;49770;47.544;19.074;2022-08-01T12:40:33;4.30;;;3.60;;
63621;SDS011;49770;47.544;19.074;2022-08-01T12:43:37;5.25;;;3.80;;
63621;SDS011;49770;47.544;19.074;2022-08-01T12:46:40;9.93;;;3.85;;
63621;SDS011;49770;47.544;19.074;2022-08-01T12:49:46;3.83;;;3.53;;
63621;SDS011;49770;47.544;19.074;2022-08-01T12:52:51;4.00;;;3.65;;
63621;SDS011;49770;47.544;19.074;2022-08-01T12:55:54;5.62;;;3.75;;
63621;SDS011;49770;47.544;19.074;2022-08-01T13:02:40;3.87;;;3.00;;
63621;SDS011;49770;47.544;19.074;2022-08-01T13:09:18;3.83;;;3.20;;
63621;SDS011;49770;47.544;19.074;2022-08-01T13:12:21;4.35;;;3.75;;
63621;SDS011;49770;47.544;19.074;2022-08-01T13:15:26;4.82;;;3.70;;
63621;SDS011;49770;47.544;19.074;2022-08-01T13:26:36;7.78;;;3.80;;
